Terminal Aerodrome Forecast
Issued by NWS Northern Indiana

Home | Current Version | Previous Version | Text Only | Print | Product List | Glossary On
Versions: 1 2 3 4 5 6 7 8 9 10 11 12 13 14 15
000
FTUS43 KIWX 191700 RRA
TAFFWA
TAF
KFWA 191741Z 1918/2018 13010KT P6SM SKC
     FM192000 15008KT P6SM FEW045
     FM200400 17007KT P6SM SKC
     FM201600 21011KT P6SM BKN120=

USA.gov is the U.S. government's official web portal to all federal, state and local government web resources and services.